Time,TemperatureF,DewpointF,PressureIn,WindDirection,WindDirectionDegrees,WindSpeedMPH,WindSpeedGustMPH,Humidity,HourlyPrecipIn,Conditions,Clouds,dailyrainin,SoftwareType,DateUTC
2013-07-06 00:01:00,75.6,75.2,30.05,South,180,1.0,2.0,99,0.00,,,0.00,meteohub,2013-07-06 04:01:00,
2013-07-06 00:06:00,75.4,75.0,30.05,South,180,2.0,2.0,99,0.00,,,0.00,meteohub,2013-07-06 04:06:00,
2013-07-06 00:11:00,75.4,75.0,30.04,South,180,0.0,2.0,99,0.00,,,0.00,meteohub,2013-07-06 04:11:00,
2013-07-06 00:16:00,75.4,75.0,30.04,South,180,0.0,2.0,99,0.00,,,0.00,meteohub,2013-07-06 04:16:00,
2013-07-06 00:21:00,75.4,75.0,30.04,South,180,0.0,2.0,99,0.00,,,0.00,meteohub,2013-07-06 04:21:00,
2013-07-06 00:26:00,75.4,75.0,30.04,South,180,0.0,0.0,99,0.00,,,0.00,meteohub,2013-07-06 04:26:00,
2013-07-06 00:31:00,75.2,74.8,30.04,South,180,0.0,0.0,99,0.00,,,0.00,meteohub,2013-07-06 04:31:00,
2013-07-06 00:36:00,75.2,74.8,30.04,South,180,0.0,0.0,99,0.00,,,0.00,meteohub,2013-07-06 04:36:00,
2013-07-06 00:41:00,75.4,75.0,30.04,South,180,0.0,0.0,99,0.00,,,0.00,meteohub,2013-07-06 04:41:00,
2013-07-06 00:46:00,75.4,75.0,30.04,West,270,0.0,0.0,99,0.00,,,0.00,meteohub,2013-07-06 04:46:00,
2013-07-06 00:51:00,75.4,75.0,30.04,West,270,0.0,0.0,99,0.00,,,0.00,meteohub,2013-07-06 04:51:00,
2013-07-06 00:56:00,75.4,75.0,30.04,West,270,0.0,0.0,99,0.00,,,0.00,meteohub,2013-07-06 04:56:00,
2013-07-06 01:01:00,75.7,75.4,30.04,South,180,2.0,2.0,99,0.00,,,0.00,meteohub,2013-07-06 05:01:00,
2013-07-06 01:06:00,75.7,75.4,30.04,South,180,2.0,2.0,99,0.00,,,0.00,meteohub,2013-07-06 05:06:00,
2013-07-06 01:11:00,76.1,75.7,30.04,South,180,0.0,2.0,99,0.00,,,0.00,meteohub,2013-07-06 05:11:00,
2013-07-06 01:17:00,76.3,75.9,30.03,East,90,0.0,2.0,99,0.00,,,0.00,meteohub,2013-07-06 05:17:00,
2013-07-06 01:22:00,76.3,75.9,30.03,NE,45,0.0,2.0,99,0.00,,,0.00,meteohub,2013-07-06 05:22:00,
2013-07-06 01:27:00,76.3,75.9,30.03,SW,225,2.0,2.0,99,0.00,,,0.00,meteohub,2013-07-06 05:27:00,
2013-07-06 01:32:00,76.3,75.9,30.03,NE,45,1.0,3.0,99,0.00,,,0.00,meteohub,2013-07-06 05:32:00,
2013-07-06 01:37:00,76.1,75.7,30.03,NE,45,0.0,3.0,99,0.00,,,0.00,meteohub,2013-07-06 05:37:00,
2013-07-06 01:42:00,76.3,75.9,30.03,West,270,2.0,3.0,99,0.00,,,0.00,meteohub,2013-07-06 05:42:00,
2013-07-06 01:47:00,76.3,75.9,30.03,North,0,0.0,2.0,99,0.00,,,0.00,meteohub,2013-07-06 05:47:00,
2013-07-06 01:52:00,76.3,75.9,30.04,SE,135,1.0,2.0,99,0.00,,,0.00,meteohub,2013-07-06 05:52:00,
2013-07-06 01:57:00,76.6,76.3,30.04,East,90,1.0,2.0,99,0.00,,,0.00,meteohub,2013-07-06 05:57:00,
2013-07-06 02:02:00,76.6,76.3,30.04,SW,225,2.0,3.0,99,0.00,,,0.00,meteohub,2013-07-06 06:02:00,
2013-07-06 02:07:00,76.6,76.3,30.04,SW,225,2.0,3.0,99,0.00,,,0.00,meteohub,2013-07-06 06:07:00,
2013-07-06 02:12:00,77.0,76.6,30.04,SW,225,1.0,3.0,99,0.00,,,0.00,meteohub,2013-07-06 06:12:00,
2013-07-06 02:17:00,77.2,76.8,30.04,NE,45,2.0,4.0,99,0.00,,,0.00,meteohub,2013-07-06 06:17:00,
2013-07-06 02:22:00,77.4,77.0,30.04,SW,225,0.0,4.0,99,0.00,,,0.00,meteohub,2013-07-06 06:22:00,
2013-07-06 02:27:00,77.2,76.8,30.03,East,90,2.0,4.0,99,0.00,,,0.00,meteohub,2013-07-06 06:27:00,
2013-07-06 02:32:00,77.4,77.0,30.04,SW,225,2.0,4.0,99,0.00,,,0.00,meteohub,2013-07-06 06:32:00,
2013-07-06 02:37:00,77.4,77.0,30.04,NE,45,2.0,3.0,99,0.00,,,0.00,meteohub,2013-07-06 06:37:00,
2013-07-06 02:42:00,77.4,77.0,30.03,NE,45,2.0,4.0,99,0.00,,,0.00,meteohub,2013-07-06 06:42:00,
2013-07-06 02:47:00,77.4,77.0,30.04,East,90,2.0,4.0,99,0.00,,,0.00,meteohub,2013-07-06 06:47:00,
2013-07-06 02:52:00,77.2,76.8,30.04,South,180,0.0,2.0,99,0.00,,,0.00,meteohub,2013-07-06 06:52:00,
2013-07-06 02:57:00,77.2,76.8,30.03,East,90,2.0,3.0,99,0.00,,,0.00,meteohub,2013-07-06 06:57:00,
2013-07-06 03:02:00,77.2,76.8,30.04,SW,225,2.0,3.0,99,0.00,,,0.00,meteohub,2013-07-06 07:02:00,
2013-07-06 03:07:00,77.2,76.8,30.03,East,90,0.0,3.0,99,0.00,,,0.00,meteohub,2013-07-06 07:07:00,
2013-07-06 03:12:00,77.0,76.6,30.04,East,90,1.0,3.0,99,0.00,,,0.00,meteohub,2013-07-06 07:12:00,
2013-07-06 03:17:00,77.0,76.6,30.04,East,90,2.0,3.0,99,0.00,,,0.00,meteohub,2013-07-06 07:17:00,
2013-07-06 03:22:00,77.0,76.6,30.04,NE,45,1.0,3.0,99,0.00,,,0.00,meteohub,2013-07-06 07:22:00,
2013-07-06 03:27:00,76.8,76.5,30.04,NE,45,2.0,2.0,99,0.00,,,0.00,meteohub,2013-07-06 07:27:00,
2013-07-06 03:32:00,76.8,76.5,30.03,SE,135,0.0,3.0,99,0.00,,,0.00,meteohub,2013-07-06 07:32:00,
2013-07-06 03:37:00,76.5,76.1,30.03,East,90,0.0,3.0,99,0.00,,,0.00,meteohub,2013-07-06 07:37:00,
2013-07-06 03:42:00,76.5,76.1,30.03,SE,135,2.0,3.0,99,0.00,,,0.00,meteohub,2013-07-06 07:42:00,
2013-07-06 03:47:00,76.5,76.1,30.03,NE,45,2.0,2.0,99,0.00,,,0.00,meteohub,2013-07-06 07:47:00,
2013-07-06 03:52:00,76.5,76.1,30.04,East,90,2.0,2.0,99,0.00,,,0.00,meteohub,2013-07-06 07:52:00,
2013-07-06 03:57:00,76.5,76.1,30.03,NE,45,0.0,2.0,99,0.00,,,0.00,meteohub,2013-07-06 07:57:00,
2013-07-06 04:02:00,76.3,75.9,30.04,NE,45,1.0,2.0,99,0.00,,,0.00,meteohub,2013-07-06 08:02:00,
2013-07-06 04:07:00,76.1,75.7,30.03,East,90,0.0,2.0,99,0.00,,,0.00,meteohub,2013-07-06 08:07:00,
2013-07-06 04:12:00,75.7,75.4,30.03,East,90,1.0,2.0,99,0.00,,,0.00,meteohub,2013-07-06 08:12:00,
2013-07-06 04:17:00,75.9,75.6,30.04,East,90,0.0,2.0,99,0.00,,,0.00,meteohub,2013-07-06 08:17:00,
2013-07-06 04:22:00,75.7,75.4,30.03,NE,45,2.0,2.0,99,0.00,,,0.00,meteohub,2013-07-06 08:22:00,
2013-07-06 04:27:00,75.6,75.2,30.04,East,90,1.0,2.0,99,0.00,,,0.00,meteohub,2013-07-06 08:27:00,
2013-07-06 04:32:00,75.6,75.2,30.03,East,90,2.0,2.0,99,0.00,,,0.00,meteohub,2013-07-06 08:32:00,
2013-07-06 04:37:00,75.4,75.0,30.03,East,90,1.0,2.0,99,0.00,,,0.00,meteohub,2013-07-06 08:37:00,
2013-07-06 04:42:00,75.4,75.0,30.03,North,0,0.0,2.0,99,0.00,,,0.00,meteohub,2013-07-06 08:42:00,
2013-07-06 04:48:00,75.6,75.2,30.03,East,90,2.0,2.0,99,0.00,,,0.00,meteohub,2013-07-06 08:48:00,
2013-07-06 04:53:00,75.6,75.2,30.03,NE,45,3.0,3.0,99,0.00,,,0.00,meteohub,2013-07-06 08:53:00,
2013-07-06 04:58:00,75.4,75.0,30.03,North,0,2.0,3.0,99,0.00,,,0.00,meteohub,2013-07-06 08:58:00,
2013-07-06 05:03:00,75.4,75.0,30.03,East,90,2.0,3.0,99,0.00,,,0.00,meteohub,2013-07-06 09:03:00,
2013-07-06 05:08:00,75.2,74.8,30.04,NE,45,0.0,3.0,99,0.00,,,0.00,meteohub,2013-07-06 09:08:00,
2013-07-06 05:13:00,75.2,74.8,30.04,East,90,2.0,2.0,99,0.00,,,0.00,meteohub,2013-07-06 09:13:00,
2013-07-06 05:18:00,75.2,74.8,30.03,East,90,2.0,2.0,99,0.00,,,0.00,meteohub,2013-07-06 09:18:00,
2013-07-06 05:23:00,75.2,74.8,30.04,East,90,0.0,2.0,99,0.00,,,0.00,meteohub,2013-07-06 09:23:00,
2013-07-06 05:28:00,75.2,74.8,30.04,East,90,2.0,2.0,99,0.00,,,0.00,meteohub,2013-07-06 09:28:00,
2013-07-06 05:33:00,75.2,74.8,30.04,East,90,2.0,2.0,99,0.00,,,0.00,meteohub,2013-07-06 09:33:00,
2013-07-06 05:38:00,75.2,74.8,30.04,NE,45,0.0,2.0,99,0.00,,,0.00,meteohub,2013-07-06 09:38:00,
2013-07-06 05:43:00,75.2,74.8,30.04,NE,45,1.0,2.0,99,0.00,,,0.00,meteohub,2013-07-06 09:43:00,
2013-07-06 05:48:00,75.2,74.8,30.04,NE,45,1.0,2.0,99,0.00,,,0.00,meteohub,2013-07-06 09:48:00,
2013-07-06 05:53:00,75.0,74.7,30.04,NE,45,0.0,2.0,99,0.00,,,0.00,meteohub,2013-07-06 09:53:00,
2013-07-06 05:58:00,75.0,74.7,30.04,NE,45,0.0,2.0,99,0.00,,,0.00,meteohub,2013-07-06 09:58:00,
2013-07-06 06:03:00,75.0,74.7,30.04,NE,45,0.0,2.0,99,0.00,,,0.00,meteohub,2013-07-06 10:03:00,
2013-07-06 06:08:00,74.8,74.5,30.04,North,0,2.0,2.0,99,0.00,,,0.00,meteohub,2013-07-06 10:08:00,
2013-07-06 06:13:00,74.8,74.5,30.04,NW,315,0.0,2.0,99,0.00,,,0.00,meteohub,2013-07-06 10:13:00,
2013-07-06 06:18:00,74.7,74.3,30.04,NW,315,0.0,2.0,99,0.00,,,0.00,meteohub,2013-07-06 10:18:00,
2013-07-06 06:23:00,74.5,74.1,30.04,South,180,0.0,2.0,99,0.00,,,0.00,meteohub,2013-07-06 10:23:00,
2013-07-06 06:28:00,74.5,74.1,30.04,South,180,0.0,0.0,99,0.00,,,0.00,meteohub,2013-07-06 10:28:00,
2013-07-06 06:33:00,74.5,74.1,30.04,South,180,0.0,0.0,99,0.00,,,0.00,meteohub,2013-07-06 10:33:00,
2013-07-06 06:38:00,74.7,74.3,30.04,SE,135,1.0,0.0,99,0.00,,,0.00,meteohub,2013-07-06 10:38:00,
2013-07-06 06:43:00,74.7,74.3,30.04,SE,135,0.0,1.0,99,0.00,,,0.00,meteohub,2013-07-06 10:43:00,
2013-07-06 06:48:00,74.7,74.3,30.04,South,180,0.0,2.0,99,0.00,,,0.00,meteohub,2013-07-06 10:48:00,
2013-07-06 06:53:00,74.8,74.5,30.04,South,180,0.0,2.0,99,0.00,,,0.00,meteohub,2013-07-06 10:53:00,
2013-07-06 06:58:00,74.8,74.5,30.04,South,180,0.0,1.0,99,0.00,,,0.00,meteohub,2013-07-06 10:58:00,
2013-07-06 07:03:00,75.0,74.7,30.04,East,90,2.0,0.0,99,0.00,,,0.00,meteohub,2013-07-06 11:03:00,
2013-07-06 07:08:00,75.4,75.0,30.04,WNW,293,4.0,0.0,99,0.00,,,0.00,meteohub,2013-07-06 11:08:00,
2013-07-06 07:13:00,76.3,75.9,30.05,East,90,0.0,4.0,99,0.00,,,0.00,meteohub,2013-07-06 11:13:00,
2013-07-06 07:18:00,77.0,76.6,30.05,South,180,2.0,4.0,99,0.00,,,0.00,meteohub,2013-07-06 11:18:00,
2013-07-06 07:23:00,77.7,77.4,30.04,East,90,0.0,4.0,99,0.00,,,0.00,meteohub,2013-07-06 11:23:00,
2013-07-06 07:28:00,78.6,78.3,30.04,NE,45,2.0,4.0,99,0.00,,,0.00,meteohub,2013-07-06 11:28:00,
2013-07-06 07:33:00,78.4,78.1,30.04,NE,45,2.0,4.0,99,0.00,,,0.00,meteohub,2013-07-06 11:33:00,
2013-07-06 07:38:00,78.4,78.1,30.04,SE,135,0.0,3.0,99,0.00,,,0.00,meteohub,2013-07-06 11:38:00,
2013-07-06 07:43:00,78.4,78.1,30.04,East,90,0.0,2.0,99,0.00,,,0.00,meteohub,2013-07-06 11:43:00,
2013-07-06 07:48:00,78.6,78.3,30.04,East,90,1.0,3.0,99,0.00,,,0.00,meteohub,2013-07-06 11:48:00,
2013-07-06 07:53:00,79.0,78.6,30.04,East,90,2.0,4.0,99,0.00,,,0.00,meteohub,2013-07-06 11:53:00,
2013-07-06 07:58:00,79.5,79.2,30.04,East,90,2.0,4.0,99,0.00,,,0.00,meteohub,2013-07-06 11:58:00,
2013-07-06 08:03:00,80.2,79.9,30.04,SW,225,0.0,4.0,99,0.00,,,0.00,meteohub,2013-07-06 12:03:00,
2013-07-06 08:09:00,80.4,80.1,30.04,SE,135,2.0,3.0,99,0.00,,,0.00,meteohub,2013-07-06 12:09:00,
2013-07-06 08:13:00,80.2,79.9,30.04,South,180,1.0,3.0,99,0.00,,,0.00,meteohub,2013-07-06 12:13:00,
2013-07-06 08:19:00,80.2,79.9,30.05,NE,45,1.0,3.0,99,0.00,,,0.00,meteohub,2013-07-06 12:19:00,
2013-07-06 08:24:00,80.4,80.1,30.05,SW,225,2.0,2.0,99,0.00,,,0.00,meteohub,2013-07-06 12:24:00,
2013-07-06 08:29:00,80.8,80.4,30.05,NE,45,2.0,3.0,99,0.00,,,0.00,meteohub,2013-07-06 12:29:00,
2013-07-06 08:34:00,81.3,81.0,30.05,East,90,4.0,5.0,99,0.00,,,0.00,meteohub,2013-07-06 12:34:00,
2013-07-06 08:39:00,81.7,81.3,30.05,SE,135,3.0,5.0,99,0.00,,,0.00,meteohub,2013-07-06 12:39:00,
2013-07-06 08:44:00,81.9,81.5,30.05,NE,45,2.0,5.0,99,0.00,,,0.00,meteohub,2013-07-06 12:44:00,
2013-07-06 08:49:00,82.2,81.9,30.04,SE,135,0.0,4.0,99,0.00,,,0.00,meteohub,2013-07-06 12:49:00,
2013-07-06 08:54:00,82.8,82.4,30.04,West,270,2.0,4.0,99,0.00,,,0.00,meteohub,2013-07-06 12:54:00,
2013-07-06 08:59:00,82.9,82.6,30.04,NE,45,5.0,5.0,99,0.00,,,0.00,meteohub,2013-07-06 12:59:00,
2013-07-06 09:04:00,83.8,83.5,30.04,North,0,2.0,3.0,99,0.00,,,0.00,meteohub,2013-07-06 13:04:00,
2013-07-06 09:09:00,84.0,83.7,30.04,North,0,3.0,6.0,99,0.00,,,0.00,meteohub,2013-07-06 13:09:00,
2013-07-06 09:14:00,85.1,84.7,30.04,SW,225,2.0,6.0,99,0.00,,,0.00,meteohub,2013-07-06 13:14:00,
2013-07-06 09:19:00,86.4,85.5,30.04,North,0,2.0,4.0,97,0.00,,,0.00,meteohub,2013-07-06 13:19:00,
2013-07-06 09:24:00,87.4,86.5,30.04,South,180,2.0,4.0,97,0.00,,,0.00,meteohub,2013-07-06 13:24:00,
2013-07-06 09:29:00,87.8,85.1,30.04,NW,315,2.0,4.0,92,0.00,,,0.00,meteohub,2013-07-06 13:29:00,
2013-07-06 09:34:00,87.6,84.7,30.04,NE,45,3.0,5.0,91,0.00,,,0.00,meteohub,2013-07-06 13:34:00,
2013-07-06 09:39:00,88.0,85.1,30.03,NE,45,2.0,5.0,91,0.00,,,0.00,meteohub,2013-07-06 13:39:00,
2013-07-06 09:44:00,88.3,85.6,30.03,East,90,1.0,5.0,92,0.00,,,0.00,meteohub,2013-07-06 13:44:00,
2013-07-06 09:49:00,89.1,85.1,30.03,NE,45,4.0,5.0,88,0.00,,,0.00,meteohub,2013-07-06 13:49:00,
2013-07-06 09:54:00,89.8,85.1,30.03,SE,135,4.0,5.0,86,0.00,,,0.00,meteohub,2013-07-06 13:54:00,
2013-07-06 09:59:00,89.8,86.2,30.03,East,90,3.0,4.0,89,0.00,,,0.00,meteohub,2013-07-06 13:59:00,
2013-07-06 10:04:00,89.4,84.7,30.03,NE,45,4.0,4.0,86,0.00,,,0.00,meteohub,2013-07-06 14:04:00,
2013-07-06 10:09:00,89.6,85.3,30.03,SE,135,2.0,4.0,87,0.00,,,0.00,meteohub,2013-07-06 14:09:00,
2013-07-06 10:14:00,89.1,84.4,30.03,North,0,3.0,4.0,86,0.00,,,0.00,meteohub,2013-07-06 14:14:00,
2013-07-06 10:19:00,90.1,85.8,30.02,South,180,2.0,4.0,87,0.00,,,0.00,meteohub,2013-07-06 14:19:00,
2013-07-06 10:24:00,91.0,85.8,30.02,West,270,2.0,4.0,85,0.00,,,0.00,meteohub,2013-07-06 14:24:00,
2013-07-06 10:29:00,91.0,84.7,30.03,North,0,2.0,4.0,82,0.00,,,0.00,meteohub,2013-07-06 14:29:00,
2013-07-06 10:34:00,90.3,84.4,30.02,NE,45,5.0,5.0,83,0.00,,,0.00,meteohub,2013-07-06 14:34:00,
2013-07-06 10:39:00,90.7,85.1,30.02,South,180,2.0,4.0,84,0.00,,,0.00,meteohub,2013-07-06 14:39:00,
2013-07-06 10:44:00,91.8,86.5,30.02,North,0,2.0,5.0,85,0.00,,,0.00,meteohub,2013-07-06 14:44:00,
2013-07-06 10:49:00,91.9,85.6,30.01,SW,225,2.0,5.0,82,0.00,,,0.00,meteohub,2013-07-06 14:49:00,
2013-07-06 10:54:00,91.4,83.5,30.02,NE,45,3.0,5.0,78,0.00,,,0.00,meteohub,2013-07-06 14:54:00,
2013-07-06 10:59:00,91.2,83.8,30.01,East,90,3.0,5.0,79,0.00,,,0.00,meteohub,2013-07-06 14:59:00,
2013-07-06 11:04:00,91.4,84.0,30.01,SE,135,3.0,5.0,79,0.00,,,0.00,meteohub,2013-07-06 15:04:00,
2013-07-06 11:10:00,91.8,84.4,30.01,NE,45,4.0,5.0,79,0.00,,,0.00,meteohub,2013-07-06 15:10:00,
2013-07-06 11:14:00,91.8,85.1,30.01,SW,225,2.0,4.0,81,0.00,,,0.00,meteohub,2013-07-06 15:14:00,
2013-07-06 11:20:00,92.7,85.1,30.02,North,0,3.0,5.0,79,0.00,,,0.00,meteohub,2013-07-06 15:20:00,
2013-07-06 11:25:00,93.9,85.1,30.01,East,90,2.0,5.0,76,0.00,,,0.00,meteohub,2013-07-06 15:25:00,
2013-07-06 11:30:00,92.7,85.1,30.01,SSW,203,2.0,5.0,79,0.00,,,0.00,meteohub,2013-07-06 15:30:00,
2013-07-06 11:35:00,91.8,84.4,30.01,North,0,3.0,6.0,79,0.00,,,0.00,meteohub,2013-07-06 15:35:00,
2013-07-06 11:40:00,92.1,83.8,30.02,East,90,4.0,6.0,77,0.00,,,0.00,meteohub,2013-07-06 15:40:00,
2013-07-06 11:45:00,92.3,84.0,30.02,North,0,4.0,6.0,77,0.00,,,0.00,meteohub,2013-07-06 15:45:00,
2013-07-06 11:50:00,92.3,83.7,30.02,SE,135,4.0,5.0,76,0.00,,,0.00,meteohub,2013-07-06 15:50:00,
2013-07-06 11:55:00,92.3,85.3,30.02,SSW,203,2.0,4.0,80,0.00,,,0.00,meteohub,2013-07-06 15:55:00,
2013-07-06 12:00:00,91.6,84.6,30.02,NE,45,3.0,4.0,80,0.00,,,0.00,meteohub,2013-07-06 16:00:00,
2013-07-06 12:05:00,90.9,83.5,30.02,NE,45,6.0,7.0,79,0.00,,,0.00,meteohub,2013-07-06 16:05:00,
2013-07-06 12:10:00,91.4,85.1,30.02,SE,135,2.0,7.0,82,0.00,,,0.00,meteohub,2013-07-06 16:10:00,
2013-07-06 12:16:00,91.2,84.6,30.02,NE,45,4.0,7.0,81,0.00,,,0.00,meteohub,2013-07-06 16:16:00,
2013-07-06 12:21:00,92.5,85.8,30.01,East,90,2.0,6.0,81,0.00,,,0.00,meteohub,2013-07-06 16:21:00,
2013-07-06 12:26:00,92.7,85.1,30.01,East,90,2.0,6.0,79,0.00,,,0.00,meteohub,2013-07-06 16:26:00,
2013-07-06 12:32:00,92.5,84.9,30.01,East,90,2.0,7.0,79,0.00,,,0.00,meteohub,2013-07-06 16:32:00,
2013-07-06 12:37:00,93.6,84.9,30.01,NE,45,4.0,7.0,76,0.00,,,0.00,meteohub,2013-07-06 16:37:00,
2013-07-06 12:42:00,94.1,85.8,30.02,South,180,4.0,7.0,77,0.00,,,0.00,meteohub,2013-07-06 16:42:00,
2013-07-06 12:47:00,93.7,85.1,30.01,South,180,2.0,5.0,76,0.00,,,0.00,meteohub,2013-07-06 16:47:00,
2013-07-06 12:52:00,93.6,84.0,30.01,East,90,3.0,5.0,74,0.00,,,0.00,meteohub,2013-07-06 16:52:00,
2013-07-06 12:58:00,94.3,85.1,30.01,East,90,3.0,8.0,75,0.00,,,0.00,meteohub,2013-07-06 16:58:00,
2013-07-06 13:03:00,94.5,84.0,30.01,NE,45,4.0,8.0,72,0.00,,,0.00,meteohub,2013-07-06 17:03:00,
2013-07-06 13:08:00,93.7,84.6,30.01,North,0,2.0,8.0,75,0.00,,,0.00,meteohub,2013-07-06 17:08:00,
2013-07-06 13:13:00,93.4,84.2,30.01,North,0,6.0,6.0,75,0.00,,,0.00,meteohub,2013-07-06 17:13:00,
2013-07-06 13:19:00,92.7,84.4,30.01,North,0,2.0,6.0,77,0.00,,,0.00,meteohub,2013-07-06 17:19:00,
2013-07-06 13:26:00,92.3,84.9,30.01,East,90,2.0,6.0,79,0.00,,,0.00,meteohub,2013-07-06 17:26:00,
2013-07-06 13:31:00,92.5,84.6,30.01,South,180,2.0,7.0,78,0.00,,,0.00,meteohub,2013-07-06 17:31:00,
2013-07-06 13:36:00,93.0,85.1,30.00,East,90,2.0,7.0,78,0.00,,,0.00,meteohub,2013-07-06 17:36:00,
2013-07-06 13:42:00,93.6,85.6,30.01,NW,315,3.0,4.0,78,0.00,,,0.00,meteohub,2013-07-06 17:42:00,
2013-07-06 13:47:00,93.7,83.8,30.01,WSW,248,4.0,4.0,73,0.00,,,0.00,meteohub,2013-07-06 17:47:00,
2013-07-06 13:52:00,94.3,83.8,30.00,NW,315,4.0,6.0,72,0.00,,,0.00,meteohub,2013-07-06 17:52:00,
2013-07-06 13:58:00,94.1,83.3,30.00,North,0,4.0,6.0,71,0.00,,,0.00,meteohub,2013-07-06 17:58:00,
2013-07-06 14:03:00,94.1,83.3,30.00,North,0,4.0,7.0,71,0.00,,,0.00,meteohub,2013-07-06 18:03:00,
2013-07-06 14:09:00,94.3,84.7,30.00,South,180,4.0,7.0,74,0.00,,,0.00,meteohub,2013-07-06 18:09:00,
2013-07-06 14:14:00,93.4,82.9,30.00,NE,45,6.0,7.0,72,0.00,,,0.00,meteohub,2013-07-06 18:14:00,
2013-07-06 14:19:00,93.6,84.0,30.00,East,90,2.0,6.0,74,0.00,,,0.00,meteohub,2013-07-06 18:19:00,
2013-07-06 14:25:00,93.9,84.0,30.00,SE,135,2.0,6.0,73,0.00,,,0.00,meteohub,2013-07-06 18:25:00,
2013-07-06 14:30:00,92.7,83.5,30.00,SW,225,2.0,6.0,75,0.00,,,0.00,meteohub,2013-07-06 18:30:00,
2013-07-06 14:35:00,91.8,83.5,30.00,NE,45,0.0,4.0,77,0.00,,,0.00,meteohub,2013-07-06 18:35:00,
2013-07-06 14:40:00,91.6,83.3,29.99,East,90,3.0,3.0,77,0.00,,,0.00,meteohub,2013-07-06 18:40:00,
2013-07-06 14:45:00,92.3,83.7,29.99,SE,135,4.0,4.0,76,0.00,,,0.00,meteohub,2013-07-06 18:45:00,
2013-07-06 14:51:00,93.4,83.8,29.99,NE,45,3.0,4.0,74,0.00,,,0.00,meteohub,2013-07-06 18:51:00,
2013-07-06 14:56:00,93.9,83.5,29.99,NE,45,4.0,4.0,72,0.00,,,0.00,meteohub,2013-07-06 18:56:00,
2013-07-06 15:01:00,94.1,85.8,29.99,North,0,3.0,4.0,77,0.00,,,0.00,meteohub,2013-07-06 19:01:00,
2013-07-06 15:07:00,94.5,85.3,29.99,South,180,2.0,8.0,75,0.00,,,0.00,meteohub,2013-07-06 19:07:00,
2013-07-06 15:12:00,95.2,84.2,29.99,SE,135,3.0,8.0,71,0.00,,,0.00,meteohub,2013-07-06 19:12:00,
2013-07-06 15:18:00,95.2,84.7,29.99,West,270,2.0,8.0,72,0.00,,,0.00,meteohub,2013-07-06 19:18:00,
2013-07-06 15:24:00,95.4,84.4,29.99,SE,135,4.0,5.0,71,0.00,,,0.00,meteohub,2013-07-06 19:24:00,
2013-07-06 15:29:00,94.6,85.5,29.99,NW,315,2.0,5.0,75,0.00,,,0.00,meteohub,2013-07-06 19:29:00,
2013-07-06 15:34:00,95.0,85.5,29.99,SW,225,2.0,5.0,74,0.00,,,0.00,meteohub,2013-07-06 19:34:00,
2013-07-06 15:39:00,94.6,83.8,29.99,North,0,3.0,5.0,71,0.00,,,0.00,meteohub,2013-07-06 19:39:00,
2013-07-06 15:44:00,95.0,85.5,29.99,SE,135,3.0,5.0,74,0.00,,,0.00,meteohub,2013-07-06 19:44:00,
2013-07-06 15:49:00,94.3,84.2,29.99,SW,225,2.0,5.0,73,0.00,,,0.00,meteohub,2013-07-06 19:49:00,
2013-07-06 15:54:00,93.4,84.2,29.99,SW,225,2.0,4.0,75,0.00,,,0.00,meteohub,2013-07-06 19:54:00,
2013-07-06 16:00:00,93.0,84.7,29.98,SW,225,4.0,5.0,77,0.00,,,0.00,meteohub,2013-07-06 20:00:00,
2013-07-06 16:05:00,92.3,83.7,29.98,SW,225,2.0,5.0,76,0.00,,,0.00,meteohub,2013-07-06 20:05:00,
2013-07-06 16:11:00,92.1,83.8,29.98,South,180,2.0,6.0,77,0.00,,,0.00,meteohub,2013-07-06 20:11:00,
2013-07-06 16:16:00,91.9,84.6,29.98,North,0,2.0,6.0,79,0.00,,,0.00,meteohub,2013-07-06 20:16:00,
2013-07-06 16:21:00,91.0,83.7,29.97,East,90,3.0,4.0,79,0.00,,,0.00,meteohub,2013-07-06 20:21:00,
2013-07-06 16:27:00,90.9,84.2,29.98,North,0,2.0,4.0,81,0.00,,,0.00,meteohub,2013-07-06 20:27:00,
2013-07-06 16:32:00,90.5,83.5,29.97,East,90,4.0,4.0,80,0.00,,,0.00,meteohub,2013-07-06 20:32:00,
2013-07-06 16:37:00,90.1,85.1,29.97,SW,225,2.0,6.0,85,0.00,,,0.00,meteohub,2013-07-06 20:37:00,
2013-07-06 16:42:00,90.0,84.4,29.97,South,180,2.0,6.0,84,0.00,,,0.00,meteohub,2013-07-06 20:42:00,
2013-07-06 16:48:00,89.8,83.8,29.97,SW,225,0.0,6.0,83,0.00,,,0.00,meteohub,2013-07-06 20:48:00,
2013-07-06 16:53:00,89.6,84.2,29.97,North,0,0.0,4.0,84,0.00,,,0.00,meteohub,2013-07-06 20:53:00,
2013-07-06 16:58:00,89.6,84.9,29.97,West,270,2.0,4.0,86,0.00,,,0.00,meteohub,2013-07-06 20:58:00,
2013-07-06 17:04:00,89.1,85.1,29.96,South,180,2.0,3.0,88,0.00,,,0.00,meteohub,2013-07-06 21:04:00,
2013-07-06 17:10:00,88.5,84.6,29.97,SW,225,2.0,3.0,88,0.00,,,0.00,meteohub,2013-07-06 21:10:00,
2013-07-06 17:16:00,88.5,84.2,29.96,South,180,2.0,4.0,87,0.00,,,0.00,meteohub,2013-07-06 21:16:00,
2013-07-06 17:21:00,88.3,83.3,29.97,SW,225,2.0,4.0,85,0.00,,,0.00,meteohub,2013-07-06 21:21:00,
2013-07-06 17:26:00,88.2,83.5,29.96,SSW,203,1.0,4.0,86,0.00,,,0.00,meteohub,2013-07-06 21:26:00,
2013-07-06 17:31:00,88.0,83.7,29.96,SW,225,2.0,4.0,87,0.00,,,0.00,meteohub,2013-07-06 21:31:00,
2013-07-06 17:37:00,87.8,83.1,29.96,SE,135,3.0,3.0,86,0.00,,,0.00,meteohub,2013-07-06 21:37:00,
2013-07-06 17:42:00,87.6,84.0,29.96,South,180,2.0,3.0,89,0.00,,,0.00,meteohub,2013-07-06 21:42:00,
2013-07-06 17:47:00,87.4,84.2,29.96,SW,225,2.0,3.0,90,0.00,,,0.00,meteohub,2013-07-06 21:47:00,
2013-07-06 17:52:00,87.1,83.8,29.96,SW,225,2.0,3.0,90,0.00,,,0.00,meteohub,2013-07-06 21:52:00,
2013-07-06 17:57:00,87.1,84.4,29.95,SW,225,2.0,3.0,92,0.00,,,0.00,meteohub,2013-07-06 21:57:00,
2013-07-06 18:02:00,86.7,84.2,29.95,SW,225,2.0,4.0,92,0.00,,,0.00,meteohub,2013-07-06 22:02:00,
2013-07-06 18:08:00,86.4,83.8,29.95,SW,225,2.0,4.0,92,0.00,,,0.00,meteohub,2013-07-06 22:08:00,
2013-07-06 18:14:00,86.2,83.8,29.95,SW,225,2.0,2.0,93,0.00,,,0.00,meteohub,2013-07-06 22:14:00,
2013-07-06 18:19:00,86.0,84.0,29.96,South,180,2.0,2.0,94,0.00,,,0.00,meteohub,2013-07-06 22:19:00,
2013-07-06 18:24:00,85.8,84.2,29.96,SW,225,2.0,2.0,95,0.00,,,0.00,meteohub,2013-07-06 22:24:00,
2013-07-06 18:29:00,85.8,84.9,29.95,South,180,2.0,2.0,97,0.00,,,0.00,meteohub,2013-07-06 22:29:00,
2013-07-06 18:34:00,85.6,84.9,29.95,SW,225,2.0,3.0,98,0.00,,,0.00,meteohub,2013-07-06 22:34:00,
2013-07-06 18:40:00,85.5,84.7,29.96,South,180,2.0,3.0,98,0.00,,,0.00,meteohub,2013-07-06 22:40:00,
2013-07-06 18:45:00,85.3,84.4,29.96,South,180,1.0,2.0,97,0.00,,,0.00,meteohub,2013-07-06 22:45:00,
2013-07-06 18:50:00,84.9,84.4,29.95,SE,135,2.0,2.0,98,0.00,,,0.00,meteohub,2013-07-06 22:50:00,
2013-07-06 18:56:00,84.7,84.4,29.95,SW,225,2.0,2.0,99,0.00,,,0.00,meteohub,2013-07-06 22:56:00,
2013-07-06 19:01:00,84.6,84.2,29.95,South,180,2.0,2.0,99,0.00,,,0.00,meteohub,2013-07-06 23:01:00,
2013-07-06 19:06:00,84.4,84.0,29.95,SW,225,2.0,2.0,99,0.00,,,0.00,meteohub,2013-07-06 23:06:00,
2013-07-06 19:12:00,84.0,83.7,29.95,South,180,2.0,2.0,99,0.00,,,0.00,meteohub,2013-07-06 23:12:00,
2013-07-06 19:17:00,83.8,83.5,29.95,SW,225,2.0,2.0,99,0.00,,,0.00,meteohub,2013-07-06 23:17:00,
2013-07-06 19:22:00,83.5,83.1,29.95,SW,225,2.0,2.0,99,0.00,,,0.00,meteohub,2013-07-06 23:22:00,
2013-07-06 19:27:00,83.3,82.9,29.95,SW,225,0.0,2.0,99,0.00,,,0.00,meteohub,2013-07-06 23:27:00,
2013-07-06 19:32:00,83.1,82.8,29.95,SW,225,1.0,2.0,99,0.00,,,0.00,meteohub,2013-07-06 23:32:00,
2013-07-06 19:37:00,82.9,82.6,29.94,SW,225,2.0,2.0,99,0.00,,,0.00,meteohub,2013-07-06 23:37:00,
2013-07-06 19:42:00,82.8,82.4,29.95,SW,225,2.0,2.0,99,0.00,,,0.00,meteohub,2013-07-06 23:42:00,
2013-07-06 19:47:00,82.6,82.2,29.95,SW,225,2.0,2.0,99,0.00,,,0.00,meteohub,2013-07-06 23:47:00,
2013-07-06 19:52:00,82.4,82.0,29.95,SW,225,2.0,2.0,99,0.00,,,0.00,meteohub,2013-07-06 23:52:00,
2013-07-06 19:57:00,82.0,81.7,29.95,South,180,2.0,2.0,99,0.00,,,0.00,meteohub,2013-07-06 23:57:00,
2013-07-06 20:02:00,81.9,81.5,29.94,SW,225,2.0,2.0,99,0.00,,,0.00,meteohub,2013-07-07 00:02:00,
2013-07-06 20:09:00,81.7,81.3,29.94,SW,225,0.0,2.0,99,0.00,,,0.00,meteohub,2013-07-07 00:09:00,
2013-07-06 20:14:00,81.5,81.1,29.95,SW,225,2.0,2.0,99,0.00,,,0.00,meteohub,2013-07-07 00:14:00,
2013-07-06 20:19:00,81.3,81.0,29.95,SW,225,2.0,2.0,99,0.00,,,0.00,meteohub,2013-07-07 00:19:00,
2013-07-06 20:24:00,81.1,80.8,29.95,SW,225,2.0,2.0,99,0.00,,,0.00,meteohub,2013-07-07 00:24:00,
2013-07-06 20:29:00,81.0,80.6,29.95,SW,225,2.0,2.0,99,0.00,,,0.00,meteohub,2013-07-07 00:29:00,
2013-07-06 20:35:00,80.8,80.4,29.94,SW,225,1.0,2.0,99,0.00,,,0.00,meteohub,2013-07-07 00:35:00,
2013-07-06 20:41:00,80.6,80.2,29.94,SW,225,2.0,2.0,99,0.00,,,0.00,meteohub,2013-07-07 00:41:00,
2013-07-06 20:46:00,80.2,79.9,29.95,SW,225,2.0,2.0,99,0.00,,,0.00,meteohub,2013-07-07 00:46:00,
2013-07-06 20:52:00,80.1,79.7,29.95,SW,225,1.0,2.0,99,0.00,,,0.00,meteohub,2013-07-07 00:52:00,
2013-07-06 20:57:00,79.9,79.5,29.95,SW,225,0.0,2.0,99,0.00,,,0.00,meteohub,2013-07-07 00:57:00,
2013-07-06 21:02:00,79.7,79.3,29.95,SW,225,1.0,2.0,99,0.00,,,0.00,meteohub,2013-07-07 01:02:00,
2013-07-06 21:07:00,79.7,79.3,29.95,SW,225,2.0,2.0,99,0.00,,,0.00,meteohub,2013-07-07 01:07:00,
2013-07-06 21:12:00,79.5,79.2,29.95,SW,225,2.0,2.0,99,0.00,,,0.00,meteohub,2013-07-07 01:12:00,
2013-07-06 21:18:00,79.3,79.0,29.96,SW,225,2.0,2.0,99,0.00,,,0.00,meteohub,2013-07-07 01:18:00,
2013-07-06 21:23:00,79.2,78.8,29.96,SW,225,0.0,2.0,99,0.00,,,0.00,meteohub,2013-07-07 01:23:00,
2013-07-06 21:28:00,79.0,78.6,29.96,South,180,0.0,2.0,99,0.00,,,0.00,meteohub,2013-07-07 01:28:00,
2013-07-06 21:33:00,78.8,78.4,29.96,South,180,0.0,2.0,99,0.00,,,0.00,meteohub,2013-07-07 01:33:00,
2013-07-06 21:38:00,78.8,78.4,29.97,South,180,0.0,2.0,99,0.00,,,0.00,meteohub,2013-07-07 01:38:00,
2013-07-06 21:44:00,78.6,78.3,29.96,South,180,0.0,1.0,99,0.00,,,0.00,meteohub,2013-07-07 01:44:00,
2013-07-06 21:49:00,78.6,78.3,29.96,South,180,0.0,0.0,99,0.00,,,0.00,meteohub,2013-07-07 01:49:00,
2013-07-06 21:55:00,78.4,78.1,29.97,South,180,0.0,0.0,99,0.00,,,0.00,meteohub,2013-07-07 01:55:00,
2013-07-06 22:00:00,78.3,77.9,29.97,South,180,0.0,0.0,99,0.00,,,0.00,meteohub,2013-07-07 02:00:00,
2013-07-06 22:06:00,78.3,77.9,29.97,South,180,0.0,0.0,99,0.00,,,0.00,meteohub,2013-07-07 02:06:00,
2013-07-06 22:11:00,78.3,77.9,29.97,West,270,0.0,0.0,99,0.00,,,0.00,meteohub,2013-07-07 02:11:00,
2013-07-06 22:17:00,78.3,77.9,29.97,West,270,0.0,0.0,99,0.00,,,0.00,meteohub,2013-07-07 02:17:00,
2013-07-06 22:22:00,78.1,77.7,29.98,SW,225,0.0,0.0,99,0.00,,,0.00,meteohub,2013-07-07 02:22:00,
2013-07-06 22:27:00,77.9,77.5,29.97,West,270,0.0,0.0,99,0.00,,,0.00,meteohub,2013-07-07 02:27:00,
2013-07-06 22:35:00,77.9,77.5,29.97,West,270,0.0,0.0,99,0.00,,,0.00,meteohub,2013-07-07 02:35:00,
2013-07-06 22:40:00,77.7,77.4,29.97,West,270,0.0,0.0,99,0.00,,,0.00,meteohub,2013-07-07 02:40:00,
2013-07-06 22:45:00,77.7,77.4,29.98,SW,225,0.0,0.0,99,0.00,,,0.00,meteohub,2013-07-07 02:45:00,
2013-07-06 22:50:00,77.5,77.2,29.98,SW,225,0.0,0.0,99,0.00,,,0.00,meteohub,2013-07-07 02:50:00,
2013-07-06 22:55:00,77.5,77.2,29.98,SW,225,0.0,0.0,99,0.00,,,0.00,meteohub,2013-07-07 02:55:00,
2013-07-06 23:00:00,77.5,77.2,29.98,SW,225,0.0,0.0,99,0.00,,,0.00,meteohub,2013-07-07 03:00:00,
2013-07-06 23:06:00,77.4,77.0,29.97,SW,225,0.0,0.0,99,0.00,,,0.00,meteohub,2013-07-07 03:06:00,
2013-07-06 23:11:00,77.4,77.0,29.98,SW,225,0.0,0.0,99,0.00,,,0.00,meteohub,2013-07-07 03:11:00,
2013-07-06 23:17:00,77.2,76.8,29.98,SW,225,0.0,0.0,99,0.00,,,0.00,meteohub,2013-07-07 03:17:00,
2013-07-06 23:22:00,77.2,76.8,29.98,SW,225,0.0,0.0,99,0.00,,,0.00,meteohub,2013-07-07 03:22:00,
2013-07-06 23:27:00,77.0,76.6,29.98,SW,225,0.0,0.0,99,0.00,,,0.00,meteohub,2013-07-07 03:27:00,
2013-07-06 23:32:00,77.0,76.6,29.98,SW,225,0.0,0.0,99,0.00,,,0.00,meteohub,2013-07-07 03:32:00,
2013-07-06 23:38:00,77.0,76.6,29.98,SW,225,0.0,0.0,99,0.00,,,0.00,meteohub,2013-07-07 03:38:00,
2013-07-06 23:43:00,77.0,76.6,29.98,SW,225,0.0,0.0,99,0.00,,,0.00,meteohub,2013-07-07 03:43:00,
2013-07-06 23:48:00,77.0,76.6,29.98,SW,225,0.0,0.0,99,0.00,,,0.00,meteohub,2013-07-07 03:48:00,
2013-07-06 23:53:00,77.0,76.6,29.97,West,270,1.0,0.0,99,0.00,,,0.00,meteohub,2013-07-07 03:53:00,
2013-07-06 23:58:00,76.8,76.5,29.98,SW,225,0.0,2.0,99,0.00,,,0.00,meteohub,2013-07-07 03:58:00,